createdAt,value
2022-08-07T00:00:03.009Z,100106.88
2022-08-07T00:00:18.672Z,100103.50
2022-08-07T00:00:30.844Z,100110.47
2022-08-07T00:00:42.880Z,100108.75
2022-08-07T00:00:55.286Z,100098.22
2022-08-07T00:01:12.476Z,100108.84
2022-08-07T00:02:36.165Z,100101.81
2022-08-07T00:02:40.417Z,100113.25
2022-08-07T00:02:47.697Z,100110.97
2022-08-07T00:02:59.963Z,100104.88
2022-08-07T00:03:14.690Z,100103.16
2022-08-07T00:03:28.185Z,100106.75
2022-08-07T00:03:48.912Z,100107.41
2022-08-07T00:04:00.946Z,100104.97
2022-08-07T00:04:16.006Z,100106.75
2022-08-07T00:04:27.955Z,100100.47
2022-08-07T00:04:41.653Z,100100.28
2022-08-07T00:04:57.424Z,100108.06
2022-08-07T00:05:09.576Z,100108.94
2022-08-07T00:05:23.611Z,100113.34
2022-08-07T00:05:37.295Z,100100.28
2022-08-07T00:05:50.717Z,100109.09
2022-08-07T00:06:04.180Z,100109.94
2022-08-07T00:06:17.477Z,100107.25
2022-08-07T00:06:33.968Z,100106.31
2022-08-07T00:06:51.776Z,100104.53
2022-08-07T00:07:05.110Z,100109.72
2022-08-07T00:07:21.451Z,100107.09
2022-08-07T00:07:41.222Z,100108.06
2022-08-07T00:08:00.247Z,100102.75
2022-08-07T00:08:14.468Z,100107.25
2022-08-07T00:08:26.644Z,100112.00
2022-08-07T00:08:44.226Z,100107.75
2022-08-07T00:08:56.416Z,100104.19
2022-08-07T00:09:16.897Z,100105.88
2022-08-07T00:09:34.263Z,100106.56
2022-08-07T00:09:59.243Z,100113.53
2022-08-07T00:10:26.075Z,100110.97
2022-08-07T00:10:47.723Z,100107.41
2022-08-07T00:11:09.208Z,100107.31
2022-08-07T00:11:29.916Z,100113.34
2022-08-07T00:11:48.082Z,100111.59
2022-08-07T00:12:08.475Z,100107.09
2022-08-07T00:12:22.548Z,100115.72
2022-08-07T00:12:57.595Z,100114.22
2022-08-07T00:13:25.763Z,100111.59
2022-08-07T00:13:44.657Z,100116.09
2022-08-07T00:13:57.283Z,100117.75
2022-08-07T00:14:11.463Z,100116.91
2022-08-07T00:14:30.200Z,100116.09
2022-08-07T00:14:44.274Z,100114.22
2022-08-07T00:14:56.248Z,100114.38
2022-08-07T00:15:08.893Z,100114.28
2022-08-07T00:15:20.827Z,100116.09
2022-08-07T00:15:46.690Z,100116.91
2022-08-07T00:16:05.242Z,100120.31
2022-08-07T00:16:21.621Z,100119.28
2022-08-07T00:16:40.142Z,100124.38
2022-08-07T00:16:53.636Z,100112.91
2022-08-07T00:17:06.696Z,100115.38
2022-08-07T00:17:18.723Z,100117.25
2022-08-07T00:17:35.206Z,100111.22
2022-08-07T00:17:47.870Z,100117.59
2022-08-07T00:18:01.088Z,100107.91
2022-08-07T00:18:19.550Z,100115.72
2022-08-07T00:18:35.843Z,100115.81
2022-08-07T00:18:50.698Z,100113.19
2022-08-07T00:19:05.602Z,100114.03
2022-08-07T00:19:21.596Z,100118.38
2022-08-07T00:20:01.274Z,100115.81
2022-08-07T00:20:07.328Z,100119.47
2022-08-07T00:20:29.837Z,100117.59
2022-08-07T00:20:46.223Z,100117.59
2022-08-07T00:21:07.976Z,100118.38
2022-08-07T00:21:56.678Z,100118.25
2022-08-07T00:21:57.334Z,100114.03
2022-08-07T00:22:14.348Z,100118.44
2022-08-07T00:22:36.978Z,100115.91
2022-08-07T00:22:51.591Z,100115.97
2022-08-07T00:23:07.972Z,100119.47
2022-08-07T00:23:21.225Z,100116.72
2022-08-07T00:23:35.233Z,100121.16
2022-08-07T00:23:47.544Z,100122.00
2022-08-07T00:24:00.174Z,100121.16
2022-08-07T00:24:12.151Z,100118.44
2022-08-07T00:24:24.129Z,100122.75
2022-08-07T00:24:36.100Z,100119.28
2022-08-07T00:24:48.535Z,100119.28
2022-08-07T00:25:00.487Z,100124.72
2022-08-07T00:25:17.304Z,100119.47
2022-08-07T00:25:41.183Z,100117.75
2022-08-07T00:26:00.307Z,100119.63
2022-08-07T00:26:31.220Z,100121.34
2022-08-07T00:26:58.630Z,100116.72
2022-08-07T00:27:17.714Z,100118.53
2022-08-07T00:27:51.637Z,100110.63
2022-08-07T00:28:01.747Z,100120.41
2022-08-07T00:28:15.486Z,100113.53
2022-08-07T00:28:33.953Z,100114.38
2022-08-07T00:28:56.591Z,100114.38
2022-08-07T00:29:08.869Z,100118.72
2022-08-07T00:29:25.839Z,100118.78
2022-08-07T00:29:43.791Z,100117.75
2022-08-07T00:29:56.590Z,100116.91
2022-08-07T00:30:27.485Z,100113.34
2022-08-07T00:30:40.260Z,100112.66
2022-08-07T00:30:52.613Z,100112.66
2022-08-07T00:31:12.669Z,100110.03
2022-08-07T00:31:38.037Z,100108.28
2022-08-07T00:31:54.503Z,100112.84
2022-08-07T00:32:07.042Z,100111.06
2022-08-07T00:32:18.984Z,100115.22
2022-08-07T00:32:40.233Z,100109.94
2022-08-07T00:32:53.439Z,100109.03
2022-08-07T00:33:05.643Z,100113.25
2022-08-07T00:33:19.814Z,100108.00
2022-08-07T00:33:32.840Z,100110.63
2022-08-07T00:33:47.616Z,100115.06
2022-08-07T00:33:59.916Z,100111.75
2022-08-07T00:34:11.917Z,100102.06
2022-08-07T00:34:23.837Z,100111.81
2022-08-07T00:34:37.143Z,100116.09
2022-08-07T00:34:49.268Z,100109.25
2022-08-07T00:35:03.058Z,100109.25
2022-08-07T00:35:16.642Z,100114.53
2022-08-07T00:35:30.002Z,100107.59
2022-08-07T00:35:46.495Z,100112.84
2022-08-07T00:36:01.703Z,100112.84
2022-08-07T00:36:13.803Z,100113.59
2022-08-07T00:36:25.763Z,100108.50
2022-08-07T00:36:42.735Z,100107.75
2022-08-07T00:36:55.506Z,100108.63
2022-08-07T00:37:08.266Z,100115.63
2022-08-07T00:37:20.347Z,100112.00
2022-08-07T00:37:34.660Z,100121.66
2022-08-07T00:38:00.490Z,100118.88
2022-08-07T00:38:13.093Z,100118.72
2022-08-07T00:38:31.121Z,100113.25
2022-08-07T00:38:44.115Z,100110.63
2022-08-07T00:38:56.129Z,100116.66
2022-08-07T00:39:16.154Z,100111.59
2022-08-07T00:39:29.157Z,100117.41
2022-08-07T00:39:44.955Z,100114.03
2022-08-07T00:39:57.458Z,100111.47
2022-08-07T00:40:10.910Z,100120.31
2022-08-07T00:40:39.655Z,100111.47
2022-08-07T00:40:52.603Z,100119.28
2022-08-07T00:41:10.013Z,100119.28
2022-08-07T00:41:32.482Z,100114.03
2022-08-07T00:41:53.923Z,100117.50
2022-08-07T00:42:14.573Z,100121.00
2022-08-07T00:42:29.229Z,100113.09
2022-08-07T00:42:41.397Z,100116.66
2022-08-07T00:42:53.485Z,100114.78
2022-08-07T00:43:09.930Z,100114.97
2022-08-07T00:44:00.496Z,100117.41
2022-08-07T00:44:00.668Z,100117.59
2022-08-07T00:44:15.122Z,100113.66
2022-08-07T00:44:27.454Z,100111.78
2022-08-07T00:44:41.544Z,100112.63
2022-08-07T00:44:53.955Z,100115.19
2022-08-07T00:45:07.197Z,100113.66
2022-08-07T00:45:21.169Z,100122.31
2022-08-07T00:45:34.862Z,100111.78
2022-08-07T00:45:48.873Z,100116.91
2022-08-07T00:46:03.003Z,100112.56
2022-08-07T00:46:14.934Z,100113.41
2022-08-07T00:46:26.955Z,100110.88
2022-08-07T00:46:38.919Z,100109.94
2022-08-07T00:46:52.443Z,100115.19
2022-08-07T00:47:15.549Z,100110.13
2022-08-07T00:48:09.518Z,100110.97
2022-08-07T00:48:11.339Z,100112.63
2022-08-07T00:48:30.827Z,100105.50
2022-08-07T00:48:43.034Z,100110.75
2022-08-07T00:48:55.138Z,100117.06
2022-08-07T00:49:07.103Z,100102.97
2022-08-07T00:50:16.739Z,100105.50
2022-08-07T00:50:20.193Z,100108.06
2022-08-07T00:50:46.130Z,100110.53
2022-08-07T00:50:56.201Z,100107.91
2022-08-07T00:51:09.672Z,100103.47
2022-08-07T00:51:21.976Z,100099.03
2022-08-07T00:51:56.787Z,100104.31
2022-08-07T00:52:07.121Z,100102.63
2022-08-07T00:52:21.886Z,100104.31
2022-08-07T00:52:33.948Z,100099.03
2022-08-07T00:52:48.692Z,100105.16
2022-08-07T00:53:00.782Z,100107.69
2022-08-07T00:53:12.984Z,100105.06
2022-08-07T00:53:25.158Z,100105.91
2022-08-07T00:53:38.589Z,100101.50
2022-08-07T00:54:01.760Z,100098.38
2022-08-07T00:54:15.311Z,100105.34
2022-08-07T00:54:32.498Z,100100.16
2022-08-07T00:54:44.925Z,100102.78
2022-08-07T00:54:56.911Z,100100.91
2022-08-07T00:55:10.772Z,100107.91
2022-08-07T00:55:25.327Z,100103.56
2022-08-07T00:56:00.739Z,100105.44
2022-08-07T00:56:15.954Z,100102.63
2022-08-07T00:56:30.223Z,100100.91
2022-08-07T00:56:45.926Z,100101.69
2022-08-07T00:57:02.335Z,100104.16
2022-08-07T00:57:17.049Z,100101.50
2022-08-07T00:57:29.229Z,100104.16
2022-08-07T00:57:55.785Z,100094.81
2022-08-07T00:58:08.162Z,100101.88
2022-08-07T00:58:21.363Z,100104.50
2022-08-07T00:58:33.560Z,100107.03
2022-08-07T00:58:46.834Z,100107.91
2022-08-07T00:59:00.253Z,100099.41
2022-08-07T00:59:12.364Z,100101.94
2022-08-07T00:59:35.282Z,100103.63
2022-08-07T00:59:48.063Z,100102.78
2022-08-07T01:00:01.159Z,100104.31
2022-08-07T01:00:15.668Z,100106.03
2022-08-07T01:00:27.804Z,100100.00
2022-08-07T01:00:53.479Z,100104.31
2022-08-07T01:01:06.578Z,100107.91
2022-08-07T01:01:20.372Z,100099.03
2022-08-07T01:01:41.571Z,100104.31
2022-08-07T01:01:57.799Z,100099.13
2022-08-07T01:02:28.099Z,100100.75
2022-08-07T01:02:42.869Z,100101.75
2022-08-07T01:02:55.336Z,100095.50
2022-08-07T01:03:07.306Z,100098.88
2022-08-07T01:03:55.573Z,100105.81
2022-08-07T01:04:00.081Z,100106.03
2022-08-07T01:04:12.381Z,100104.50
2022-08-07T01:04:43.841Z,100108.81
2022-08-07T01:04:58.186Z,100103.47
2022-08-07T01:05:18.827Z,100106.03
2022-08-07T01:05:32.534Z,100111.28
2022-08-07T01:05:53.528Z,100105.16
2022-08-07T01:06:06.079Z,100102.53
2022-08-07T01:06:18.830Z,100106.94
2022-08-07T01:06:34.839Z,100101.88
2022-08-07T01:06:47.914Z,100105.34
2022-08-07T01:07:01.463Z,100101.75
2022-08-07T01:07:15.177Z,100097.38
2022-08-07T01:07:29.332Z,100103.38
2022-08-07T01:07:41.920Z,100106.94
2022-08-07T01:07:54.353Z,100102.63
2022-08-07T01:08:09.065Z,100104.31
2022-08-07T01:08:21.845Z,100103.47
2022-08-07T01:08:43.292Z,100103.47
2022-08-07T01:09:05.694Z,100105.50
2022-08-07T01:10:04.608Z,100099.41
2022-08-07T01:10:05.038Z,100104.66
2022-08-07T01:10:19.896Z,100106.38
2022-08-07T01:10:33.341Z,100102.13
2022-08-07T01:10:47.755Z,100103.81
2022-08-07T01:12:05.004Z,100101.28
2022-08-07T01:12:23.671Z,100106.72
2022-08-07T01:12:30.288Z,100105.00
2022-08-07T01:12:43.972Z,100108.59
2022-08-07T01:13:05.827Z,100104.44
2022-08-07T01:13:18.174Z,100105.38
2022-08-07T01:13:35.212Z,100107.09
2022-08-07T01:13:55.578Z,100102.66
2022-08-07T01:14:09.032Z,100102.56
2022-08-07T01:14:28.868Z,100104.19
2022-08-07T01:14:41.390Z,100103.34
2022-08-07T01:15:01.731Z,100105.97
2022-08-07T01:15:16.928Z,100102.38
2022-08-07T01:15:35.798Z,100107.56
2022-08-07T01:16:07.707Z,100103.56
2022-08-07T01:16:30.090Z,100099.94
2022-08-07T01:16:46.813Z,100100.88
2022-08-07T01:17:00.078Z,100097.31
2022-08-07T01:17:12.149Z,100103.41
2022-08-07T01:17:24.439Z,100107.72
2022-08-07T01:17:37.092Z,100104.19
2022-08-07T01:17:52.137Z,100103.34
2022-08-07T01:18:05.965Z,100104.25
2022-08-07T01:18:21.755Z,100102.56
2022-08-07T01:18:37.038Z,100100.03
2022-08-07T01:18:49.314Z,100103.50
2022-08-07T01:19:04.837Z,100106.97
2022-08-07T01:19:32.499Z,100103.50
2022-08-07T01:19:45.117Z,100110.47
2022-08-07T01:20:16.534Z,100106.22
2022-08-07T01:20:35.281Z,100105.38
2022-08-07T01:21:26.045Z,100106.41
2022-08-07T01:21:39.822Z,100111.13
2022-08-07T01:21:55.300Z,100107.41
2022-08-07T01:22:08.684Z,100109.09
2022-08-07T01:22:22.925Z,100105.56
2022-08-07T01:22:54.058Z,100109.09
2022-08-07T01:23:14.982Z,100112.66
2022-08-07T01:23:36.916Z,100111.75
2022-08-07T01:23:53.844Z,100112.50
2022-08-07T01:24:06.205Z,100115.06
2022-08-07T01:24:21.685Z,100114.09
2022-08-07T01:24:35.439Z,100109.72
2022-08-07T01:24:47.967Z,100107.09
2022-08-07T01:25:01.010Z,100104.44
2022-08-07T01:25:54.727Z,100117.59
2022-08-07T01:25:55.280Z,100114.38
2022-08-07T01:26:13.498Z,100109.25
2022-08-07T01:26:29.580Z,100110.22
2022-08-07T01:26:42.058Z,100110.13
2022-08-07T01:27:03.720Z,100106.56
2022-08-07T01:27:32.131Z,100110.97
2022-08-07T01:27:51.249Z,100108.44
2022-08-07T01:28:03.839Z,100106.06
2022-08-07T01:28:16.188Z,100099.09
2022-08-07T01:28:29.286Z,100110.50
2022-08-07T01:28:48.331Z,100108.69
2022-08-07T01:29:00.892Z,100100.81
2022-08-07T01:29:13.121Z,100105.31
2022-08-07T01:29:27.962Z,100107.75
2022-08-07T01:29:43.237Z,100107.94
2022-08-07T01:29:55.580Z,100104.34
2022-08-07T01:30:09.231Z,100110.38
2022-08-07T01:30:27.170Z,100101.56
2022-08-07T01:30:40.192Z,100107.75
2022-08-07T01:30:55.473Z,100102.69
2022-08-07T01:31:09.341Z,100107.94
2022-08-07T01:31:42.881Z,100108.84
2022-08-07T01:32:00.903Z,100108.00
2022-08-07T01:32:17.939Z,100108.78
2022-08-07T01:32:30.736Z,100111.47
2022-08-07T01:32:43.277Z,100106.22
2022-08-07T01:32:55.751Z,100105.47
2022-08-07T01:33:10.346Z,100102.75
2022-08-07T01:33:23.348Z,100107.25
2022-08-07T01:33:56.201Z,100111.66
2022-08-07T01:34:08.453Z,100111.06
2022-08-07T01:34:30.600Z,100110.16
2022-08-07T01:34:47.229Z,100104.81
2022-08-07T01:35:00.447Z,100102.19
2022-08-07T01:35:12.963Z,100108.28
2022-08-07T01:35:53.558Z,100105.72
2022-08-07T01:36:06.213Z,100105.47
2022-08-07T01:36:19.758Z,100113.34
2022-08-07T01:36:52.611Z,100104.34
2022-08-07T01:37:12.138Z,100102.84
2022-08-07T01:37:25.721Z,100108.09
2022-08-07T01:37:38.148Z,100113.19
2022-08-07T01:37:50.576Z,100109.63
2022-08-07T01:38:02.969Z,100109.63
2022-08-07T01:38:14.996Z,100102.84
2022-08-07T01:38:38.623Z,100108.84
2022-08-07T01:38:50.672Z,100111.47
2022-08-07T01:39:09.470Z,100114.13
2022-08-07T01:39:22.495Z,100109.81
2022-08-07T01:39:40.387Z,100106.22
2022-08-07T01:40:02.013Z,100115.22
2022-08-07T01:40:16.390Z,100110.72
2022-08-07T01:40:28.948Z,100109.81
2022-08-07T01:40:43.221Z,100111.59
2022-08-07T01:41:01.923Z,100113.34
2022-08-07T01:41:26.066Z,100108.09
2022-08-07T01:41:40.794Z,100112.34
2022-08-07T01:42:38.917Z,100111.31
2022-08-07T01:42:57.141Z,100113.34
2022-08-07T01:43:09.975Z,100115.22
2022-08-07T01:43:25.915Z,100111.75
2022-08-07T01:43:38.673Z,100111.00
2022-08-07T01:43:51.321Z,100115.41
2022-08-07T01:44:03.880Z,100110.06
2022-08-07T01:44:16.100Z,100113.53
2022-08-07T01:44:28.756Z,100110.31
2022-08-07T01:44:41.586Z,100111.34
2022-08-07T01:44:54.287Z,100115.75
2022-08-07T01:45:16.070Z,100114.03
2022-08-07T01:45:37.233Z,100110.41
2022-08-07T01:45:54.777Z,100110.31
2022-08-07T01:46:08.273Z,100118.97
2022-08-07T01:46:21.442Z,100107.59
2022-08-07T01:46:34.395Z,100110.31
2022-08-07T01:46:47.064Z,100117.28
2022-08-07T01:47:01.143Z,100112.00
2022-08-07T01:48:19.261Z,100111.41
2022-08-07T01:48:20.614Z,100114.03
2022-08-07T01:48:32.697Z,100117.63
2022-08-07T01:48:47.605Z,100113.19
2022-08-07T01:48:59.874Z,100113.13
2022-08-07T01:49:12.763Z,100115.75
2022-08-07T01:49:27.481Z,100112.16
2022-08-07T01:49:43.927Z,100115.91
2022-08-07T01:49:56.646Z,100111.59
2022-08-07T01:50:09.189Z,100123.00
2022-08-07T01:50:29.041Z,100117.75
2022-08-07T01:50:43.276Z,100112.47
2022-08-07T01:51:58.697Z,100108.66
2022-08-07T01:52:03.710Z,100119.09
2022-08-07T01:52:16.100Z,100121.66
2022-08-07T01:52:31.547Z,100111.97
2022-08-07T01:52:49.755Z,100111.91
2022-08-07T01:53:08.604Z,100109.28
2022-08-07T01:54:11.802Z,100113.66
2022-08-07T01:54:12.299Z,100113.00
2022-08-07T01:54:32.847Z,100114.88
2022-08-07T01:54:52.621Z,100104.69
2022-08-07T01:55:06.364Z,100108.25
2022-08-07T01:55:22.275Z,100106.56
2022-08-07T01:55:49.480Z,100109.63
2022-08-07T01:56:09.218Z,100113.00
2022-08-07T01:56:28.916Z,100113.00
2022-08-07T01:56:56.411Z,100106.22
2022-08-07T01:58:01.552Z,100104.50
2022-08-07T01:58:27.766Z,100107.75
2022-08-07T01:58:48.757Z,100110.19
2022-08-07T01:59:09.400Z,100108.59
2022-08-07T01:59:35.167Z,100115.97
2022-08-07T01:59:54.603Z,100103.59
2022-08-07T02:00:13.230Z,100109.94
2022-08-07T02:00:29.344Z,100109.00
2022-08-07T02:00:49.142Z,100108.25
2022-08-07T02:01:25.464Z,100107.22
2022-08-07T02:02:02.677Z,100108.09
2022-08-07T02:03:11.440Z,100102.66
2022-08-07T02:03:19.135Z,100101.31
2022-08-07T02:03:49.089Z,100107.47
2022-08-07T02:04:15.973Z,100102.22
2022-08-07T02:04:37.886Z,100102.97
2022-08-07T02:04:58.274Z,100096.03
2022-08-07T02:05:16.135Z,100096.03
2022-08-07T02:05:59.655Z,100101.31
2022-08-07T02:06:31.281Z,100093.50
2022-08-07T02:06:45.856Z,100096.03
2022-08-07T02:07:01.303Z,100098.69
2022-08-07T02:07:15.036Z,100102.16
2022-08-07T02:07:49.893Z,100094.34
2022-08-07T02:08:07.900Z,100093.56
2022-08-07T02:08:25.273Z,100094.50
2022-08-07T02:08:41.708Z,100089.06
2022-08-07T02:08:56.015Z,100093.31
2022-08-07T02:09:11.842Z,100094.19
2022-08-07T02:09:54.720Z,100092.47
2022-08-07T02:10:14.323Z,100091.63
2022-08-07T02:10:27.739Z,100093.56
2022-08-07T02:10:42.119Z,100084.75
2022-08-07T02:10:59.146Z,100094.41
2022-08-07T02:12:04.089Z,100093.56
2022-08-07T02:12:04.853Z,100091.00
2022-08-07T02:12:29.089Z,100092.81
2022-08-07T02:12:50.208Z,100085.84
2022-08-07T02:13:04.725Z,100086.94
2022-08-07T02:13:58.277Z,100089.41
2022-08-07T02:14:02.655Z,100083.22
2022-08-07T02:14:36.014Z,100083.13
2022-08-07T02:14:52.733Z,100089.22
2022-08-07T02:15:07.122Z,100090.94
2022-08-07T02:15:23.195Z,100087.53
2022-08-07T02:15:39.909Z,100083.06
2022-08-07T02:15:53.743Z,100087.28
2022-08-07T02:16:08.276Z,100091.72
2022-08-07T02:16:28.427Z,100089.22
2022-08-07T02:16:48.160Z,100085.69
2022-08-07T02:17:00.291Z,100086.78
2022-08-07T02:17:24.668Z,100085.94
2022-08-07T02:17:39.353Z,100087.69
2022-08-07T02:17:54.865Z,100089.56
2022-08-07T02:18:12.536Z,100089.56
2022-08-07T02:18:29.923Z,100087.88
2022-08-07T02:18:47.039Z,100088.97
2022-08-07T02:19:01.883Z,100086.34
2022-08-07T02:20:04.348Z,100092.44
2022-08-07T02:20:04.374Z,100080.91
2022-08-07T02:20:23.392Z,100081.69
2022-08-07T02:20:35.662Z,100089.56
2022-08-07T02:20:55.927Z,100085.41
2022-08-07T02:21:09.778Z,100088.81
2022-08-07T02:21:56.787Z,100087.88
2022-08-07T02:22:01.729Z,100085.84
2022-08-07T02:22:20.040Z,100090.19
2022-08-07T02:22:36.081Z,100083.97
2022-08-07T02:22:57.549Z,100082.13
2022-08-07T02:23:13.781Z,100087.53
2022-08-07T02:23:39.555Z,100085.69
2022-08-07T02:23:52.058Z,100080.44
2022-08-07T02:24:06.003Z,100085.69
2022-08-07T02:24:21.857Z,100082.97
2022-08-07T02:24:34.188Z,100083.91
2022-08-07T02:24:48.811Z,100080.44
2022-08-07T02:25:01.842Z,100082.13
2022-08-07T02:25:20.895Z,100078.72
2022-08-07T02:26:30.865Z,100078.56
2022-08-07T02:26:33.029Z,100080.56
2022-08-07T02:26:48.858Z,100075.66
2022-08-07T02:27:02.929Z,100084.41
2022-08-07T02:27:18.500Z,100076.41
2022-08-07T02:27:34.396Z,100079.22
2022-08-07T02:27:51.213Z,100077.38
2022-08-07T02:28:07.272Z,100081.88
2022-08-07T02:28:27.338Z,100083.53
2022-08-07T02:28:40.591Z,100082.78
2022-08-07T02:28:56.087Z,100078.53
2022-08-07T02:29:13.734Z,100074.06
2022-08-07T02:29:27.328Z,100069.63
2022-08-07T02:29:48.823Z,100073.22
2022-08-07T02:30:08.549Z,100078.47
2022-08-07T02:30:21.005Z,100078.41
2022-08-07T02:30:35.458Z,100077.38
2022-08-07T02:30:48.459Z,100071.00
2022-08-07T02:31:10.473Z,100072.81
2022-08-07T02:31:35.836Z,100072.13
2022-08-07T02:31:48.563Z,100077.38
2022-08-07T02:32:03.483Z,100068.53
2022-08-07T02:32:17.327Z,100073.78
2022-08-07T02:32:38.696Z,100069.41
2022-08-07T02:33:10.558Z,100072.13
2022-08-07T02:33:32.857Z,100073.78
2022-08-07T02:34:10.922Z,100070.06
2022-08-07T02:34:23.356Z,100073.47
2022-08-07T02:34:38.813Z,100068.19
2022-08-07T02:35:01.730Z,100074.41
2022-08-07T02:35:20.329Z,100073.47
2022-08-07T02:36:29.246Z,100071.84
2022-08-07T02:36:32.483Z,100070.25
2022-08-07T02:36:46.006Z,100069.22
2022-08-07T02:37:00.379Z,100074.47
2022-08-07T02:37:14.069Z,100074.47
2022-08-07T02:37:28.131Z,100069.22
2022-08-07T02:37:47.990Z,100067.63
2022-08-07T02:38:03.510Z,100067.88
2022-08-07T02:38:18.269Z,100066.09
2022-08-07T02:38:38.165Z,100071.28
2022-08-07T02:38:56.798Z,100067.78
2022-08-07T02:39:17.030Z,100068.78
2022-08-07T02:40:02.239Z,100068.72
2022-08-07T02:40:30.774Z,100065.16
2022-08-07T02:40:50.446Z,100065.84
2022-08-07T02:41:05.632Z,100068.38
2022-08-07T02:41:21.565Z,100067.63
2022-08-07T02:41:37.135Z,100063.13
2022-08-07T02:41:54.804Z,100066.66
2022-08-07T02:42:09.844Z,100061.41
2022-08-07T02:42:28.688Z,100064.81
2022-08-07T02:42:42.854Z,100065.91
2022-08-07T02:42:57.563Z,100061.59
2022-08-07T02:43:10.172Z,100065.16
2022-08-07T02:43:22.894Z,100065.16
2022-08-07T02:43:39.517Z,100059.88
2022-08-07T02:43:53.166Z,100063.38
2022-08-07T02:44:06.413Z,100059.88
2022-08-07T02:44:18.753Z,100065.00
2022-08-07T02:44:34.726Z,100063.28
2022-08-07T02:44:50.079Z,100059.72
2022-08-07T02:45:07.206Z,100059.72
2022-08-07T02:46:00.839Z,100054.47
2022-08-07T02:46:16.300Z,100058.03
2022-08-07T02:46:33.428Z,100059.88
2022-08-07T02:46:52.656Z,100056.34
2022-08-07T02:47:05.697Z,100058.97
2022-08-07T02:47:19.638Z,100061.59
2022-08-07T02:47:44.983Z,100063.28
2022-08-07T02:48:01.875Z,100065.00
2022-08-07T02:48:15.708Z,100058.97
2022-08-07T02:48:28.148Z,100061.59
2022-08-07T02:48:40.320Z,100064.22
2022-08-07T02:49:06.615Z,100055.25
2022-08-07T02:49:56.390Z,100063.13
2022-08-07T02:49:57.614Z,100055.25
2022-08-07T02:50:12.011Z,100064.16
2022-08-07T02:50:25.741Z,100056.28
2022-08-07T02:50:45.831Z,100064.03
2022-08-07T02:51:03.668Z,100062.19
2022-08-07T02:51:42.052Z,100065.69
2022-08-07T02:51:55.647Z,100063.97
2022-08-07T02:52:13.038Z,100060.41
2022-08-07T02:53:00.919Z,100063.81
2022-08-07T02:53:27.496Z,100065.56
2022-08-07T02:53:42.591Z,100068.19
2022-08-07T02:53:56.180Z,100057.59
2022-08-07T02:54:09.907Z,100063.75
2022-08-07T02:54:28.836Z,100062.09
2022-08-07T02:54:42.803Z,100057.03
2022-08-07T02:54:58.394Z,100063.28
2022-08-07T02:55:27.715Z,100064.03
2022-08-07T02:56:04.170Z,100063.97
2022-08-07T02:56:21.669Z,100062.94
2022-08-07T02:56:35.072Z,100061.25
2022-08-07T02:56:48.572Z,100063.13
2022-08-07T02:57:03.221Z,100058.63
2022-08-07T02:57:28.654Z,100065.84
2022-08-07T02:57:47.366Z,100062.44
2022-08-07T02:58:04.431Z,100066.00
2022-08-07T02:58:21.577Z,100064.03
2022-08-07T02:58:35.293Z,100070.25
2022-08-07T02:58:51.442Z,100065.00
2022-08-07T02:59:10.652Z,100059.72
2022-08-07T02:59:27.627Z,100060.06
2022-08-07T02:59:45.609Z,100061.19
2022-08-07T03:00:11.091Z,100061.94
2022-08-07T03:00:24.090Z,100061.94
2022-08-07T03:00:39.087Z,100063.63
2022-08-07T03:00:54.917Z,100067.13
2022-08-07T03:01:18.455Z,100067.97
2022-08-07T03:01:35.419Z,100062.78
2022-08-07T03:01:52.074Z,100055.16
2022-08-07T03:02:07.968Z,100059.03
2022-08-07T03:02:21.559Z,100054.09
2022-08-07T03:02:35.793Z,100058.44
2022-08-07T03:02:54.905Z,100057.50
2022-08-07T03:03:13.483Z,100056.75
2022-08-07T03:03:50.209Z,100060.13
2022-08-07T03:04:06.957Z,100058.19
2022-08-07T03:04:22.995Z,100052.09
2022-08-07T03:04:36.455Z,100061.72
2022-08-07T03:04:51.418Z,100055.63
2022-08-07T03:05:05.118Z,100057.69
2022-08-07T03:05:20.697Z,100059.38
2022-08-07T03:05:37.825Z,100057.50
2022-08-07T03:05:53.627Z,100055.81
2022-08-07T03:06:06.732Z,100050.91
2022-08-07T03:06:33.130Z,100050.13
2022-08-07T03:06:48.514Z,100052.50
2022-08-07T03:07:05.258Z,100054.09
2022-08-07T03:08:05.301Z,100054.88
2022-08-07T03:08:07.717Z,100047.84
2022-08-07T03:08:26.723Z,100053.41
2022-08-07T03:08:41.846Z,100050.72
2022-08-07T03:08:54.508Z,100048.09
2022-08-07T03:09:11.311Z,100048.94
2022-08-07T03:09:42.434Z,100051.47
2022-08-07T03:09:56.142Z,100050.72
2022-08-07T03:10:10.045Z,100050.72
2022-08-07T03:10:26.498Z,100049.88
2022-08-07T03:10:41.071Z,100054.28
2022-08-07T03:11:00.138Z,100051.06
2022-08-07T03:11:12.678Z,100045.03
2022-08-07T03:11:28.068Z,100046.63
2022-08-07T03:11:52.184Z,100046.63
2022-08-07T03:12:21.966Z,100051.81
2022-08-07T03:12:35.177Z,100048.16
2022-08-07T03:12:47.758Z,100052.44
2022-08-07T03:13:04.591Z,100052.44
2022-08-07T03:13:20.290Z,100050.66
2022-08-07T03:13:39.291Z,100055.13
2022-08-07T03:14:03.938Z,100055.22
2022-08-07T03:14:17.475Z,100055.13
2022-08-07T03:14:30.915Z,100049.03
2022-08-07T03:14:48.611Z,100047.50
2022-08-07T03:15:07.554Z,100052.66
2022-08-07T03:15:30.261Z,100050.47
2022-08-07T03:15:56.278Z,100049.53
2022-08-07T03:16:10.493Z,100047.06
2022-08-07T03:16:27.896Z,100046.19
2022-08-07T03:16:40.966Z,100050.53
2022-08-07T03:16:53.941Z,100054.78
2022-08-07T03:17:06.426Z,100046.81
2022-08-07T03:17:22.149Z,100047.66
2022-08-07T03:17:52.700Z,100053.69
2022-08-07T03:18:06.064Z,100043.03
2022-08-07T03:18:20.286Z,100050.78
2022-08-07T03:18:36.673Z,100047.50
2022-08-07T03:18:48.949Z,100049.19
2022-08-07T03:19:02.044Z,100042.41
2022-08-07T03:19:14.026Z,100047.84
2022-08-07T03:19:28.893Z,100048.69
2022-08-07T03:19:41.344Z,100047.84
2022-08-07T03:19:55.059Z,100056.63
2022-08-07T03:20:08.923Z,100046.91
2022-08-07T03:20:25.519Z,100053.84
2022-08-07T03:20:39.854Z,100048.41
2022-08-07T03:20:53.940Z,100049.25
2022-08-07T03:21:08.749Z,100049.38
2022-08-07T03:21:23.587Z,100052.75
2022-08-07T03:21:35.632Z,100047.31
2022-08-07T03:21:51.267Z,100047.50
2022-08-07T03:22:05.492Z,100050.91
2022-08-07T03:22:19.323Z,100048.28
2022-08-07T03:22:31.964Z,100054.44
2022-08-07T03:22:50.204Z,100055.28
2022-08-07T03:23:03.003Z,100052.75
2022-08-07T03:23:19.400Z,100047.50
2022-08-07T03:23:33.674Z,100056.47
2022-08-07T03:24:20.499Z,100056.63
2022-08-07T03:24:27.288Z,100053.94
2022-08-07T03:24:40.182Z,100059.25
2022-08-07T03:24:54.208Z,100053.09
2022-08-07T03:25:10.351Z,100055.63
2022-08-07T03:25:23.777Z,100056.47
2022-08-07T03:25:41.657Z,100060.03
2022-08-07T03:25:58.299Z,100059.25
2022-08-07T03:26:15.519Z,100056.63
2022-08-07T03:26:34.868Z,100053.09
2022-08-07T03:26:51.149Z,100066.13
2022-08-07T03:27:11.450Z,100061.88
2022-08-07T03:27:30.742Z,100062.97